sensor_id;sensor_type;location;lat;lon;timestamp;temperature;humidity
23671;DHT22;12012;51.998;7.614;2022-11-15T00:00:28;9.30;99.90
23671;DHT22;12012;51.998;7.614;2022-11-15T00:02:54;9.30;99.90
23671;DHT22;12012;51.998;7.614;2022-11-15T00:05:20;9.30;99.90
23671;DHT22;12012;51.998;7.614;2022-11-15T00:07:45;9.30;99.90
23671;DHT22;12012;51.998;7.614;2022-11-15T00:10:11;9.30;99.90
23671;DHT22;12012;51.998;7.614;2022-11-15T00:12:37;9.30;99.90
23671;DHT22;12012;51.998;7.614;2022-11-15T00:15:03;9.30;99.90
23671;DHT22;12012;51.998;7.614;2022-11-15T00:17:29;9.30;99.90
23671;DHT22;12012;51.998;7.614;2022-11-15T00:19:55;9.30;99.90
23671;DHT22;12012;51.998;7.614;2022-11-15T00:22:21;9.30;99.90
23671;DHT22;12012;51.998;7.614;2022-11-15T00:24:47;9.30;99.90
23671;DHT22;12012;51.998;7.614;2022-11-15T00:27:12;9.30;99.90
23671;DHT22;12012;51.998;7.614;2022-11-15T00:29:38;9.30;1.00
23671;DHT22;12012;51.998;7.614;2022-11-15T00:32:09;9.30;1.00
23671;DHT22;12012;51.998;7.614;2022-11-15T00:34:34;9.30;99.90
23671;DHT22;12012;51.998;7.614;2022-11-15T00:37:00;9.30;99.90
23671;DHT22;12012;51.998;7.614;2022-11-15T00:39:27;9.30;99.90
23671;DHT22;12012;51.998;7.614;2022-11-15T00:41:52;9.30;99.90
23671;DHT22;12012;51.998;7.614;2022-11-15T00:44:18;9.30;99.90
23671;DHT22;12012;51.998;7.614;2022-11-15T00:46:43;9.40;99.90
23671;DHT22;12012;51.998;7.614;2022-11-15T00:49:09;9.40;99.90
23671;DHT22;12012;51.998;7.614;2022-11-15T00:51:34;9.40;99.90
23671;DHT22;12012;51.998;7.614;2022-11-15T00:54:00;9.40;99.90
23671;DHT22;12012;51.998;7.614;2022-11-15T00:56:25;9.40;1.00
23671;DHT22;12012;51.998;7.614;2022-11-15T00:58:52;9.40;99.90
23671;DHT22;12012;51.998;7.614;2022-11-15T01:01:18;9.40;99.90
23671;DHT22;12012;51.998;7.614;2022-11-15T01:03:43;9.40;99.90
23671;DHT22;12012;51.998;7.614;2022-11-15T01:06:09;9.40;99.90
23671;DHT22;12012;51.998;7.614;2022-11-15T01:08:35;9.40;99.90
23671;DHT22;12012;51.998;7.614;2022-11-15T01:11:11;9.40;99.90
23671;DHT22;12012;51.998;7.614;2022-11-15T01:13:38;9.40;99.90
23671;DHT22;12012;51.998;7.614;2022-11-15T01:16:14;9.40;99.90
23671;DHT22;12012;51.998;7.614;2022-11-15T01:18:42;9.50;99.90
23671;DHT22;12012;51.998;7.614;2022-11-15T01:21:10;9.50;99.90
23671;DHT22;12012;51.998;7.614;2022-11-15T01:23:36;9.50;99.90
23671;DHT22;12012;51.998;7.614;2022-11-15T01:26:04;9.50;99.90
23671;DHT22;12012;51.998;7.614;2022-11-15T01:28:35;9.50;99.90
23671;DHT22;12012;51.998;7.614;2022-11-15T01:31:03;9.50;99.90
23671;DHT22;12012;51.998;7.614;2022-11-15T01:33:29;9.50;99.90
23671;DHT22;12012;51.998;7.614;2022-11-15T01:35:55;9.50;99.90
23671;DHT22;12012;51.998;7.614;2022-11-15T01:38:22;9.50;99.90
23671;DHT22;12012;51.998;7.614;2022-11-15T01:40:48;9.60;99.90
23671;DHT22;12012;51.998;7.614;2022-11-15T01:43:30;9.60;99.90
23671;DHT22;12012;51.998;7.614;2022-11-15T01:46:04;9.60;99.90
23671;DHT22;12012;51.998;7.614;2022-11-15T01:48:33;9.60;99.90
23671;DHT22;12012;51.998;7.614;2022-11-15T01:51:07;9.60;99.90
23671;DHT22;12012;51.998;7.614;2022-11-15T01:53:34;9.70;99.90
23671;DHT22;12012;51.998;7.614;2022-11-15T01:56:05;9.70;99.90
23671;DHT22;12012;51.998;7.614;2022-11-15T01:58:31;9.70;99.90
23671;DHT22;12012;51.998;7.614;2022-11-15T02:00:57;9.70;90.80
23671;DHT22;12012;51.998;7.614;2022-11-15T02:03:28;9.70;93.70
23671;DHT22;12012;51.998;7.614;2022-11-15T02:05:56;9.70;80.30
23671;DHT22;12012;51.998;7.614;2022-11-15T02:08:21;9.80;78.50
23671;DHT22;12012;51.998;7.614;2022-11-15T02:10:47;9.80;55.50
23671;DHT22;12012;51.998;7.614;2022-11-15T02:13:14;9.80;93.50
23671;DHT22;12012;51.998;7.614;2022-11-15T02:15:51;9.80;66.10
23671;DHT22;12012;51.998;7.614;2022-11-15T02:18:29;9.80;60.80
23671;DHT22;12012;51.998;7.614;2022-11-15T02:21:09;9.90;86.40
23671;DHT22;12012;51.998;7.614;2022-11-15T02:34:44;9.90;92.40
23671;DHT22;12012;51.998;7.614;2022-11-15T02:37:25;9.90;81.70
23671;DHT22;12012;51.998;7.614;2022-11-15T02:40:17;9.90;99.90
23671;DHT22;12012;51.998;7.614;2022-11-15T02:42:55;9.90;75.50
23671;DHT22;12012;51.998;7.614;2022-11-15T02:45:46;10.00;53.70
23671;DHT22;12012;51.998;7.614;2022-11-15T02:48:15;10.00;47.30
23671;DHT22;12012;51.998;7.614;2022-11-15T02:50:42;10.00;99.90
23671;DHT22;12012;51.998;7.614;2022-11-15T02:53:09;10.00;99.90
23671;DHT22;12012;51.998;7.614;2022-11-15T02:55:43;10.10;99.90
23671;DHT22;12012;51.998;7.614;2022-11-15T03:04:43;10.10;99.90
23671;DHT22;12012;51.998;7.614;2022-11-15T03:06:45;10.10;99.90
23671;DHT22;12012;51.998;7.614;2022-11-15T03:09:37;10.10;99.90
23671;DHT22;12012;51.998;7.614;2022-11-15T03:12:08;10.10;99.90
23671;DHT22;12012;51.998;7.614;2022-11-15T03:15:41;10.20;99.90
23671;DHT22;12012;51.998;7.614;2022-11-15T03:17:51;10.20;99.90
23671;DHT22;12012;51.998;7.614;2022-11-15T03:20:19;10.20;99.90
23671;DHT22;12012;51.998;7.614;2022-11-15T03:22:46;10.20;99.90
23671;DHT22;12012;51.998;7.614;2022-11-15T03:25:19;10.20;99.90
23671;DHT22;12012;51.998;7.614;2022-11-15T03:27:49;10.20;99.90
23671;DHT22;12012;51.998;7.614;2022-11-15T03:30:16;10.30;99.90
23671;DHT22;12012;51.998;7.614;2022-11-15T03:32:52;10.30;99.90
23671;DHT22;12012;51.998;7.614;2022-11-15T03:35:21;10.30;99.90
23671;DHT22;12012;51.998;7.614;2022-11-15T03:40:41;10.30;99.90
23671;DHT22;12012;51.998;7.614;2022-11-15T03:43:22;10.40;99.90
23671;DHT22;12012;51.998;7.614;2022-11-15T03:46:11;10.40;99.90
23671;DHT22;12012;51.998;7.614;2022-11-15T03:48:41;10.50;1.00
23671;DHT22;12012;51.998;7.614;2022-11-15T03:51:08;10.50;1.00
23671;DHT22;12012;51.998;7.614;2022-11-15T03:53:34;10.60;1.00
23671;DHT22;12012;51.998;7.614;2022-11-15T03:56:00;10.60;1.00
23671;DHT22;12012;51.998;7.614;2022-11-15T03:58:25;10.70;1.00
23671;DHT22;12012;51.998;7.614;2022-11-15T04:00:51;10.70;99.90
23671;DHT22;12012;51.998;7.614;2022-11-15T04:03:16;10.70;99.90
23671;DHT22;12012;51.998;7.614;2022-11-15T04:05:42;10.80;99.90
23671;DHT22;12012;51.998;7.614;2022-11-15T04:08:07;10.80;99.90
23671;DHT22;12012;51.998;7.614;2022-11-15T04:10:33;10.80;99.90
23671;DHT22;12012;51.998;7.614;2022-11-15T04:12:59;10.80;99.90
23671;DHT22;12012;51.998;7.614;2022-11-15T04:15:24;10.90;99.90
23671;DHT22;12012;51.998;7.614;2022-11-15T04:17:54;10.80;99.90
23671;DHT22;12012;51.998;7.614;2022-11-15T04:20:21;10.90;1.00
23671;DHT22;12012;51.998;7.614;2022-11-15T04:23:17;10.90;1.00
23671;DHT22;12012;51.998;7.614;2022-11-15T04:26:04;10.90;99.90
23671;DHT22;12012;51.998;7.614;2022-11-15T04:28:30;10.90;99.90
23671;DHT22;12012;51.998;7.614;2022-11-15T04:30:56;10.90;99.90
23671;DHT22;12012;51.998;7.614;2022-11-15T04:33:22;10.90;99.90
23671;DHT22;12012;51.998;7.614;2022-11-15T04:35:48;10.90;1.00
23671;DHT22;12012;51.998;7.614;2022-11-15T04:38:40;10.90;99.90
23671;DHT22;12012;51.998;7.614;2022-11-15T04:41:06;10.90;26.70
23671;DHT22;12012;51.998;7.614;2022-11-15T04:43:31;10.90;1.00
23671;DHT22;12012;51.998;7.614;2022-11-15T04:45:57;10.90;99.90
23671;DHT22;12012;51.998;7.614;2022-11-15T04:48:22;10.90;1.00
23671;DHT22;12012;51.998;7.614;2022-11-15T04:50:49;10.90;99.90
23671;DHT22;12012;51.998;7.614;2022-11-15T04:53:14;11.00;27.80
23671;DHT22;12012;51.998;7.614;2022-11-15T04:55:40;11.00;99.90
23671;DHT22;12012;51.998;7.614;2022-11-15T04:58:09;11.00;1.00
23671;DHT22;12012;51.998;7.614;2022-11-15T05:00:35;11.00;1.00
23671;DHT22;12012;51.998;7.614;2022-11-15T05:03:00;11.10;1.00
23671;DHT22;12012;51.998;7.614;2022-11-15T05:05:45;11.10;1.00
23671;DHT22;12012;51.998;7.614;2022-11-15T05:08:10;11.10;1.00
23671;DHT22;12012;51.998;7.614;2022-11-15T05:10:36;11.10;1.00
23671;DHT22;12012;51.998;7.614;2022-11-15T05:13:01;11.10;91.50
23671;DHT22;12012;51.998;7.614;2022-11-15T05:15:27;11.20;1.00
23671;DHT22;12012;51.998;7.614;2022-11-15T05:17:57;11.10;33.40
23671;DHT22;12012;51.998;7.614;2022-11-15T05:20:23;11.20;17.50
23671;DHT22;12012;51.998;7.614;2022-11-15T05:22:49;11.20;5.70
23671;DHT22;12012;51.998;7.614;2022-11-15T05:25:14;11.20;16.20
23671;DHT22;12012;51.998;7.614;2022-11-15T05:27:40;11.20;99.90
23671;DHT22;12012;51.998;7.614;2022-11-15T05:30:06;11.30;99.90
23671;DHT22;12012;51.998;7.614;2022-11-15T05:32:32;11.30;99.90
23671;DHT22;12012;51.998;7.614;2022-11-15T05:34:58;11.40;99.90
23671;DHT22;12012;51.998;7.614;2022-11-15T05:37:23;11.40;1.00
23671;DHT22;12012;51.998;7.614;2022-11-15T05:39:49;11.40;99.90
23671;DHT22;12012;51.998;7.614;2022-11-15T05:42:16;11.50;1.00
23671;DHT22;12012;51.998;7.614;2022-11-15T05:44:46;11.60;99.90
23671;DHT22;12012;51.998;7.614;2022-11-15T05:47:16;11.60;1.00
23671;DHT22;12012;51.998;7.614;2022-11-15T05:49:44;11.70;99.90
23671;DHT22;12012;51.998;7.614;2022-11-15T05:52:14;11.70;99.90
23671;DHT22;12012;51.998;7.614;2022-11-15T05:54:41;11.80;99.90
23671;DHT22;12012;51.998;7.614;2022-11-15T05:57:07;11.80;8.00
23671;DHT22;12012;51.998;7.614;2022-11-15T05:59:33;11.80;99.90
23671;DHT22;12012;51.998;7.614;2022-11-15T06:02:00;11.80;99.90
23671;DHT22;12012;51.998;7.614;2022-11-15T06:04:25;11.80;1.00
23671;DHT22;12012;51.998;7.614;2022-11-15T06:06:51;11.80;1.00
23671;DHT22;12012;51.998;7.614;2022-11-15T06:09:16;11.80;99.90
23671;DHT22;12012;51.998;7.614;2022-11-15T06:11:42;11.80;31.70
23671;DHT22;12012;51.998;7.614;2022-11-15T06:14:07;11.80;68.20
23671;DHT22;12012;51.998;7.614;2022-11-15T06:16:33;11.80;99.90
23671;DHT22;12012;51.998;7.614;2022-11-15T06:18:59;11.80;9.20
23671;DHT22;12012;51.998;7.614;2022-11-15T06:21:24;11.80;99.90
23671;DHT22;12012;51.998;7.614;2022-11-15T06:23:53;11.70;1.00
23671;DHT22;12012;51.998;7.614;2022-11-15T06:26:18;11.70;1.00
23671;DHT22;12012;51.998;7.614;2022-11-15T06:28:44;11.70;99.90
23671;DHT22;12012;51.998;7.614;2022-11-15T06:31:10;11.70;99.90
23671;DHT22;12012;51.998;7.614;2022-11-15T06:33:37;11.70;99.90
23671;DHT22;12012;51.998;7.614;2022-11-15T06:36:06;11.70;1.00
23671;DHT22;12012;51.998;7.614;2022-11-15T06:38:32;11.70;99.90
23671;DHT22;12012;51.998;7.614;2022-11-15T06:41:08;11.70;1.00
23671;DHT22;12012;51.998;7.614;2022-11-15T06:43:34;11.60;95.60
23671;DHT22;12012;51.998;7.614;2022-11-15T06:46:01;11.70;1.00
23671;DHT22;12012;51.998;7.614;2022-11-15T06:48:28;11.70;99.90
23671;DHT22;12012;51.998;7.614;2022-11-15T06:50:55;11.60;99.90
23671;DHT22;12012;51.998;7.614;2022-11-15T06:53:20;11.70;99.90
23671;DHT22;12012;51.998;7.614;2022-11-15T06:55:46;11.70;1.00
23671;DHT22;12012;51.998;7.614;2022-11-15T06:58:12;11.70;99.90
23671;DHT22;12012;51.998;7.614;2022-11-15T07:00:37;11.70;99.90
23671;DHT22;12012;51.998;7.614;2022-11-15T07:03:03;11.70;99.90
23671;DHT22;12012;51.998;7.614;2022-11-15T07:05:29;11.70;99.90
23671;DHT22;12012;51.998;7.614;2022-11-15T07:07:56;11.70;50.00
23671;DHT22;12012;51.998;7.614;2022-11-15T07:10:23;11.70;99.90
23671;DHT22;12012;51.998;7.614;2022-11-15T07:12:50;11.70;40.20
23671;DHT22;12012;51.998;7.614;2022-11-15T07:15:17;11.70;1.00
23671;DHT22;12012;51.998;7.614;2022-11-15T07:17:43;11.80;99.90
23671;DHT22;12012;51.998;7.614;2022-11-15T07:20:09;11.80;99.90
23671;DHT22;12012;51.998;7.614;2022-11-15T07:22:35;11.80;1.00
23671;DHT22;12012;51.998;7.614;2022-11-15T07:25:01;11.80;99.90
23671;DHT22;12012;51.998;7.614;2022-11-15T07:27:27;11.90;99.90
23671;DHT22;12012;51.998;7.614;2022-11-15T07:29:52;12.00;1.00
23671;DHT22;12012;51.998;7.614;2022-11-15T07:32:18;12.00;99.90
23671;DHT22;12012;51.998;7.614;2022-11-15T07:34:43;12.10;12.90
23671;DHT22;12012;51.998;7.614;2022-11-15T07:37:10;12.10;99.90
23671;DHT22;12012;51.998;7.614;2022-11-15T07:39:36;12.10;99.90
23671;DHT22;12012;51.998;7.614;2022-11-15T07:42:01;12.20;99.90
23671;DHT22;12012;51.998;7.614;2022-11-15T07:44:45;12.20;99.90
23671;DHT22;12012;51.998;7.614;2022-11-15T07:47:11;12.30;1.00
23671;DHT22;12012;51.998;7.614;2022-11-15T07:49:36;12.30;1.00
23671;DHT22;12012;51.998;7.614;2022-11-15T07:52:02;12.40;1.00
23671;DHT22;12012;51.998;7.614;2022-11-15T07:54:27;12.40;1.00
23671;DHT22;12012;51.998;7.614;2022-11-15T07:56:53;12.40;1.00
23671;DHT22;12012;51.998;7.614;2022-11-15T07:59:18;12.40;1.00
23671;DHT22;12012;51.998;7.614;2022-11-15T08:01:44;12.30;99.90
23671;DHT22;12012;51.998;7.614;2022-11-15T08:04:11;12.40;99.90
23671;DHT22;12012;51.998;7.614;2022-11-15T08:06:37;12.30;1.00
23671;DHT22;12012;51.998;7.614;2022-11-15T08:09:02;12.30;99.90
23671;DHT22;12012;51.998;7.614;2022-11-15T08:11:28;12.40;99.90
23671;DHT22;12012;51.998;7.614;2022-11-15T08:13:54;12.40;15.00
23671;DHT22;12012;51.998;7.614;2022-11-15T08:16:19;12.40;99.90
23671;DHT22;12012;51.998;7.614;2022-11-15T08:18:45;12.40;99.90
23671;DHT22;12012;51.998;7.614;2022-11-15T08:21:14;12.40;46.40
23671;DHT22;12012;51.998;7.614;2022-11-15T08:23:43;12.50;61.40
23671;DHT22;12012;51.998;7.614;2022-11-15T08:26:09;12.50;99.90
23671;DHT22;12012;51.998;7.614;2022-11-15T08:28:34;12.50;99.90
23671;DHT22;12012;51.998;7.614;2022-11-15T08:31:00;12.60;99.90
23671;DHT22;12012;51.998;7.614;2022-11-15T08:33:26;12.60;99.90
23671;DHT22;12012;51.998;7.614;2022-11-15T08:35:56;12.70;99.90
23671;DHT22;12012;51.998;7.614;2022-11-15T08:38:22;12.80;1.00
23671;DHT22;12012;51.998;7.614;2022-11-15T08:40:48;12.90;1.00
23671;DHT22;12012;51.998;7.614;2022-11-15T08:43:15;13.00;99.90
23671;DHT22;12012;51.998;7.614;2022-11-15T08:45:40;13.10;1.00
23671;DHT22;12012;51.998;7.614;2022-11-15T08:48:06;13.20;99.90
23671;DHT22;12012;51.998;7.614;2022-11-15T08:50:32;13.20;1.00
23671;DHT22;12012;51.998;7.614;2022-11-15T08:52:57;13.40;99.90
23671;DHT22;12012;51.998;7.614;2022-11-15T08:55:23;13.50;1.00
23671;DHT22;12012;51.998;7.614;2022-11-15T08:57:48;13.60;1.00
23671;DHT22;12012;51.998;7.614;2022-11-15T09:00:14;13.70;65.60
23671;DHT22;12012;51.998;7.614;2022-11-15T09:02:40;13.80;99.90
23671;DHT22;12012;51.998;7.614;2022-11-15T09:05:06;13.80;1.00
23671;DHT22;12012;51.998;7.614;2022-11-15T09:07:32;13.90;99.90
23671;DHT22;12012;51.998;7.614;2022-11-15T09:09:58;14.10;99.90
23671;DHT22;12012;51.998;7.614;2022-11-15T09:12:24;14.10;99.90
23671;DHT22;12012;51.998;7.614;2022-11-15T09:14:49;14.20;1.00
23671;DHT22;12012;51.998;7.614;2022-11-15T09:17:15;14.30;99.90
23671;DHT22;12012;51.998;7.614;2022-11-15T09:19:41;14.40;1.00
23671;DHT22;12012;51.998;7.614;2022-11-15T09:22:07;14.40;99.90
23671;DHT22;12012;51.998;7.614;2022-11-15T09:24:33;14.50;1.00
23671;DHT22;12012;51.998;7.614;2022-11-15T09:26:59;14.50;99.90
23671;DHT22;12012;51.998;7.614;2022-11-15T09:29:25;14.60;98.60
23671;DHT22;12012;51.998;7.614;2022-11-15T09:31:53;14.60;90.50
23671;DHT22;12012;51.998;7.614;2022-11-15T09:34:19;14.70;1.00
23671;DHT22;12012;51.998;7.614;2022-11-15T09:36:46;14.80;99.90
23671;DHT22;12012;51.998;7.614;2022-11-15T09:39:11;14.90;99.90
23671;DHT22;12012;51.998;7.614;2022-11-15T09:44:25;15.00;99.90
23671;DHT22;12012;51.998;7.614;2022-11-15T09:49:21;15.20;1.00
23671;DHT22;12012;51.998;7.614;2022-11-15T09:51:52;15.20;1.00
23671;DHT22;12012;51.998;7.614;2022-11-15T09:56:50;15.40;1.00
23671;DHT22;12012;51.998;7.614;2022-11-15T10:02:12;15.40;99.90
23671;DHT22;12012;51.998;7.614;2022-11-15T10:04:40;15.40;99.90
23671;DHT22;12012;51.998;7.614;2022-11-15T10:07:19;15.30;99.90
23671;DHT22;12012;51.998;7.614;2022-11-15T10:12:48;15.30;99.90
23671;DHT22;12012;51.998;7.614;2022-11-15T10:15:17;15.30;99.90
23671;DHT22;12012;51.998;7.614;2022-11-15T10:20:32;15.50;99.90
23671;DHT22;12012;51.998;7.614;2022-11-15T10:23:05;15.70;99.90
23671;DHT22;12012;51.998;7.614;2022-11-15T10:25:33;15.90;99.90
23671;DHT22;12012;51.998;7.614;2022-11-15T10:28:21;16.10;99.90
23671;DHT22;12012;51.998;7.614;2022-11-15T10:30:49;16.20;99.90
23671;DHT22;12012;51.998;7.614;2022-11-15T10:33:32;16.50;99.90
23671;DHT22;12012;51.998;7.614;2022-11-15T10:46:31;18.00;68.20
23671;DHT22;12012;51.998;7.614;2022-11-15T10:49:18;18.10;36.60
23671;DHT22;12012;51.998;7.614;2022-11-15T10:51:49;18.40;23.50
23671;DHT22;12012;51.998;7.614;2022-11-15T10:54:28;18.90;9.00
23671;DHT22;12012;51.998;7.614;2022-11-15T10:56:58;19.60;1.00
23671;DHT22;12012;51.998;7.614;2022-11-15T10:59:28;20.30;1.00
23671;DHT22;12012;51.998;7.614;2022-11-15T11:01:54;21.10;1.00
23671;DHT22;12012;51.998;7.614;2022-11-15T11:04:20;22.00;1.00
23671;DHT22;12012;51.998;7.614;2022-11-15T11:06:56;22.30;1.00
23671;DHT22;12012;51.998;7.614;2022-11-15T11:12:02;22.30;1.00
23671;DHT22;12012;51.998;7.614;2022-11-15T11:14:30;23.00;1.00
23671;DHT22;12012;51.998;7.614;2022-11-15T11:19:54;23.90;1.00
23671;DHT22;12012;51.998;7.614;2022-11-15T11:31:13;25.50;1.00
23671;DHT22;12012;51.998;7.614;2022-11-15T11:33:49;25.40;1.00
23671;DHT22;12012;51.998;7.614;2022-11-15T11:50:10;25.80;1.00
23671;DHT22;12012;51.998;7.614;2022-11-15T11:52:18;26.20;1.00
23671;DHT22;12012;51.998;7.614;2022-11-15T11:57:41;26.80;1.00
23671;DHT22;12012;51.998;7.614;2022-11-15T12:00:18;27.00;1.00
23671;DHT22;12012;51.998;7.614;2022-11-15T12:02:50;27.10;1.00
23671;DHT22;12012;51.998;7.614;2022-11-15T12:07:54;27.20;1.00
23671;DHT22;12012;51.998;7.614;2022-11-15T12:10:29;27.10;1.00
23671;DHT22;12012;51.998;7.614;2022-11-15T12:15:32;28.50;1.00
23671;DHT22;12012;51.998;7.614;2022-11-15T12:18:01;28.70;1.00
23671;DHT22;12012;51.998;7.614;2022-11-15T12:20:31;28.50;1.00
23671;DHT22;12012;51.998;7.614;2022-11-15T12:25:43;28.70;1.00
23671;DHT22;12012;51.998;7.614;2022-11-15T12:30:51;29.00;1.00
23671;DHT22;12012;51.998;7.614;2022-11-15T12:33:40;28.90;1.00
23671;DHT22;12012;51.998;7.614;2022-11-15T12:41:21;28.20;1.00
23671;DHT22;12012;51.998;7.614;2022-11-15T12:43:49;27.70;1.00
23671;DHT22;12012;51.998;7.614;2022-11-15T12:48:50;27.60;1.00
23671;DHT22;12012;51.998;7.614;2022-11-15T12:51:16;26.60;1.00
23671;DHT22;12012;51.998;7.614;2022-11-15T12:53:42;26.20;1.00
23671;DHT22;12012;51.998;7.614;2022-11-15T12:58:57;25.40;1.00
23671;DHT22;12012;51.998;7.614;2022-11-15T13:12:01;23.00;1.00
23671;DHT22;12012;51.998;7.614;2022-11-15T13:19:47;23.00;1.00
23671;DHT22;12012;51.998;7.614;2022-11-15T13:22:13;23.00;1.00
23671;DHT22;12012;51.998;7.614;2022-11-15T13:24:59;22.80;1.00
23671;DHT22;12012;51.998;7.614;2022-11-15T13:27:26;22.50;1.00
23671;DHT22;12012;51.998;7.614;2022-11-15T13:29:52;22.20;1.00
23671;DHT22;12012;51.998;7.614;2022-11-15T13:32:18;21.90;1.00
23671;DHT22;12012;51.998;7.614;2022-11-15T13:34:49;21.30;1.00
23671;DHT22;12012;51.998;7.614;2022-11-15T13:39:47;20.60;1.00
23671;DHT22;12012;51.998;7.614;2022-11-15T13:42:18;20.20;1.00
23671;DHT22;12012;51.998;7.614;2022-11-15T13:44:56;19.90;1.00
23671;DHT22;12012;51.998;7.614;2022-11-15T13:47:25;19.60;1.00
23671;DHT22;12012;51.998;7.614;2022-11-15T13:49:52;19.30;1.00
23671;DHT22;12012;51.998;7.614;2022-11-15T13:52:18;19.20;1.00
23671;DHT22;12012;51.998;7.614;2022-11-15T13:55:00;19.30;1.00
23671;DHT22;12012;51.998;7.614;2022-11-15T13:57:30;19.80;1.00
23671;DHT22;12012;51.998;7.614;2022-11-15T14:00:02;20.10;1.00
23671;DHT22;12012;51.998;7.614;2022-11-15T14:02:30;20.00;1.00
23671;DHT22;12012;51.998;7.614;2022-11-15T14:05:03;19.70;1.00
23671;DHT22;12012;51.998;7.614;2022-11-15T14:07:30;19.50;1.00
23671;DHT22;12012;51.998;7.614;2022-11-15T14:09:56;19.20;1.00
23671;DHT22;12012;51.998;7.614;2022-11-15T14:12:29;19.00;1.00
23671;DHT22;12012;51.998;7.614;2022-11-15T14:14:56;18.90;1.00
23671;DHT22;12012;51.998;7.614;2022-11-15T14:19:57;18.70;1.00
23671;DHT22;12012;51.998;7.614;2022-11-15T14:22:26;18.70;1.00
23671;DHT22;12012;51.998;7.614;2022-11-15T14:30:29;18.40;1.00
23671;DHT22;12012;51.998;7.614;2022-11-15T14:32:55;18.00;1.00
23671;DHT22;12012;51.998;7.614;2022-11-15T14:35:22;17.60;1.00
23671;DHT22;12012;51.998;7.614;2022-11-15T14:37:48;17.30;1.00
23671;DHT22;12012;51.998;7.614;2022-11-15T14:40:19;17.10;1.00
23671;DHT22;12012;51.998;7.614;2022-11-15T14:42:46;17.00;1.00
23671;DHT22;12012;51.998;7.614;2022-11-15T14:45:21;16.80;1.00
23671;DHT22;12012;51.998;7.614;2022-11-15T14:47:47;16.60;1.00
23671;DHT22;12012;51.998;7.614;2022-11-15T14:50:15;16.50;1.00
23671;DHT22;12012;51.998;7.614;2022-11-15T14:52:41;16.30;1.00
23671;DHT22;12012;51.998;7.614;2022-11-15T14:55:20;16.20;1.00
23671;DHT22;12012;51.998;7.614;2022-11-15T14:57:47;16.00;1.00
23671;DHT22;12012;51.998;7.614;2022-11-15T15:00:13;15.90;1.00
23671;DHT22;12012;51.998;7.614;2022-11-15T15:02:40;15.70;1.00
23671;DHT22;12012;51.998;7.614;2022-11-15T15:05:24;15.60;1.00
23671;DHT22;12012;51.998;7.614;2022-11-15T15:07:50;15.40;1.00
23671;DHT22;12012;51.998;7.614;2022-11-15T15:10:18;15.30;1.00
23671;DHT22;12012;51.998;7.614;2022-11-15T15:12:44;15.10;1.00
23671;DHT22;12012;51.998;7.614;2022-11-15T15:15:15;15.00;1.00
23671;DHT22;12012;51.998;7.614;2022-11-15T15:17:41;14.90;1.00
23671;DHT22;12012;51.998;7.614;2022-11-15T15:20:07;14.70;1.00
23671;DHT22;12012;51.998;7.614;2022-11-15T15:22:33;14.60;1.00
23671;DHT22;12012;51.998;7.614;2022-11-15T15:24:59;14.50;1.00
23671;DHT22;12012;51.998;7.614;2022-11-15T15:27:24;14.40;1.00
23671;DHT22;12012;51.998;7.614;2022-11-15T15:29:50;14.30;1.00
23671;DHT22;12012;51.998;7.614;2022-11-15T15:32:15;14.20;1.00
23671;DHT22;12012;51.998;7.614;2022-11-15T15:34:41;14.10;1.00
23671;DHT22;12012;51.998;7.614;2022-11-15T15:37:23;14.00;1.00
23671;DHT22;12012;51.998;7.614;2022-11-15T15:39:53;13.90;1.00
23671;DHT22;12012;51.998;7.614;2022-11-15T15:42:20;13.90;1.00
23671;DHT22;12012;51.998;7.614;2022-11-15T15:44:47;13.80;1.00
23671;DHT22;12012;51.998;7.614;2022-11-15T15:47:18;13.70;1.00
23671;DHT22;12012;51.998;7.614;2022-11-15T15:49:45;13.60;1.00
23671;DHT22;12012;51.998;7.614;2022-11-15T15:52:10;13.50;1.00
23671;DHT22;12012;51.998;7.614;2022-11-15T15:54:37;13.40;1.00
23671;DHT22;12012;51.998;7.614;2022-11-15T15:57:02;13.30;1.00
23671;DHT22;12012;51.998;7.614;2022-11-15T15:59:28;13.20;1.00
23671;DHT22;12012;51.998;7.614;2022-11-15T16:01:54;13.20;1.00
23671;DHT22;12012;51.998;7.614;2022-11-15T16:04:19;13.10;1.00
23671;DHT22;12012;51.998;7.614;2022-11-15T16:06:45;13.00;1.00
23671;DHT22;12012;51.998;7.614;2022-11-15T16:09:13;13.00;1.00
23671;DHT22;12012;51.998;7.614;2022-11-15T16:11:40;12.90;1.00
23671;DHT22;12012;51.998;7.614;2022-11-15T16:14:07;12.80;1.00
23671;DHT22;12012;51.998;7.614;2022-11-15T16:16:33;12.70;1.00
23671;DHT22;12012;51.998;7.614;2022-11-15T16:18:59;12.60;1.00
23671;DHT22;12012;51.998;7.614;2022-11-15T16:21:26;12.60;1.00
23671;DHT22;12012;51.998;7.614;2022-11-15T16:23:52;12.50;1.00
23671;DHT22;12012;51.998;7.614;2022-11-15T16:28:48;12.30;1.00
23671;DHT22;12012;51.998;7.614;2022-11-15T16:31:14;12.20;1.00
23671;DHT22;12012;51.998;7.614;2022-11-15T16:33:40;12.20;1.00
23671;DHT22;12012;51.998;7.614;2022-11-15T16:36:14;12.10;1.00
23671;DHT22;12012;51.998;7.614;2022-11-15T16:38:40;12.00;1.00
23671;DHT22;12012;51.998;7.614;2022-11-15T16:41:06;11.90;1.00
23671;DHT22;12012;51.998;7.614;2022-11-15T16:43:31;11.90;1.00
23671;DHT22;12012;51.998;7.614;2022-11-15T16:45:57;11.80;1.00
23671;DHT22;12012;51.998;7.614;2022-11-15T16:48:24;11.80;1.00
23671;DHT22;12012;51.998;7.614;2022-11-15T16:50:54;11.70;1.00
23671;DHT22;12012;51.998;7.614;2022-11-15T16:53:20;11.70;1.00
23671;DHT22;12012;51.998;7.614;2022-11-15T16:55:46;11.60;1.00
23671;DHT22;12012;51.998;7.614;2022-11-15T16:58:11;11.60;1.00
23671;DHT22;12012;51.998;7.614;2022-11-15T17:00:37;11.60;1.00
23671;DHT22;12012;51.998;7.614;2022-11-15T17:03:02;11.60;1.00
23671;DHT22;12012;51.998;7.614;2022-11-15T17:05:29;11.50;1.00
23671;DHT22;12012;51.998;7.614;2022-11-15T17:07:55;11.50;1.00
23671;DHT22;12012;51.998;7.614;2022-11-15T17:10:21;11.50;1.00
23671;DHT22;12012;51.998;7.614;2022-11-15T17:12:48;11.50;1.00
23671;DHT22;12012;51.998;7.614;2022-11-15T17:15:14;11.50;1.00
23671;DHT22;12012;51.998;7.614;2022-11-15T17:17:41;11.50;1.00
23671;DHT22;12012;51.998;7.614;2022-11-15T17:20:13;11.50;1.00
23671;DHT22;12012;51.998;7.614;2022-11-15T17:22:39;11.50;1.00
23671;DHT22;12012;51.998;7.614;2022-11-15T17:25:05;11.50;1.00
23671;DHT22;12012;51.998;7.614;2022-11-15T17:27:30;11.50;1.00
23671;DHT22;12012;51.998;7.614;2022-11-15T17:29:56;11.50;1.00
23671;DHT22;12012;51.998;7.614;2022-11-15T17:32:22;11.60;1.00
23671;DHT22;12012;51.998;7.614;2022-11-15T17:34:47;11.60;1.80
23671;DHT22;12012;51.998;7.614;2022-11-15T17:37:13;11.60;22.70
23671;DHT22;12012;51.998;7.614;2022-11-15T17:39:38;11.60;26.90
23671;DHT22;12012;51.998;7.614;2022-11-15T17:42:04;11.70;40.40
23671;DHT22;12012;51.998;7.614;2022-11-15T17:44:31;11.70;50.10
23671;DHT22;12012;51.998;7.614;2022-11-15T17:46:56;11.80;83.60
23671;DHT22;12012;51.998;7.614;2022-11-15T17:49:22;11.80;94.60
23671;DHT22;12012;51.998;7.614;2022-11-15T17:51:47;11.80;99.90
23671;DHT22;12012;51.998;7.614;2022-11-15T17:54:13;11.80;99.90